sensor_id;sensor_type;location;lat;lon;timestamp;P1;durP1;ratioP1;P2;durP2;ratioP2
26163;SDS011;13914;48.178;11.716;2023-02-28T00:00:35;7.57;;;2.45;;
26163;SDS011;13914;48.178;11.716;2023-02-28T00:03:02;4.60;;;2.20;;
26163;SDS011;13914;48.178;11.716;2023-02-28T00:05:29;6.85;;;2.80;;
26163;SDS011;13914;48.178;11.716;2023-02-28T00:07:55;3.40;;;1.75;;
26163;SDS011;13914;48.178;11.716;2023-02-28T00:10:23;5.60;;;2.58;;
26163;SDS011;13914;48.178;11.716;2023-02-28T00:12:52;4.32;;;2.38;;
26163;SDS011;13914;48.178;11.716;2023-02-28T00:15:22;3.38;;;2.20;;
26163;SDS011;13914;48.178;11.716;2023-02-28T00:17:49;5.68;;;2.78;;
26163;SDS011;13914;48.178;11.716;2023-02-28T00:20:16;4.97;;;2.55;;
26163;SDS011;13914;48.178;11.716;2023-02-28T00:22:43;4.13;;;2.83;;
26163;SDS011;13914;48.178;11.716;2023-02-28T00:25:14;5.15;;;2.85;;
26163;SDS011;13914;48.178;11.716;2023-02-28T00:27:42;6.75;;;2.80;;
26163;SDS011;13914;48.178;11.716;2023-02-28T00:30:10;10.00;;;2.90;;
26163;SDS011;13914;48.178;11.716;2023-02-28T00:32:39;4.47;;;2.50;;
26163;SDS011;13914;48.178;11.716;2023-02-28T00:35:05;4.65;;;2.30;;
26163;SDS011;13914;48.178;11.716;2023-02-28T00:37:33;9.00;;;3.08;;
26163;SDS011;13914;48.178;11.716;2023-02-28T00:39:58;5.78;;;3.00;;
26163;SDS011;13914;48.178;11.716;2023-02-28T00:42:25;6.70;;;2.53;;
26163;SDS011;13914;48.178;11.716;2023-02-28T00:44:51;3.75;;;1.77;;
26163;SDS011;13914;48.178;11.716;2023-02-28T00:47:17;6.13;;;3.20;;
26163;SDS011;13914;48.178;11.716;2023-02-28T00:49:43;7.75;;;2.83;;
26163;SDS011;13914;48.178;11.716;2023-02-28T00:52:09;9.10;;;3.20;;
26163;SDS011;13914;48.178;11.716;2023-02-28T00:54:35;3.95;;;2.40;;
26163;SDS011;13914;48.178;11.716;2023-02-28T00:57:01;11.02;;;2.85;;
26163;SDS011;13914;48.178;11.716;2023-02-28T00:59:31;6.82;;;3.25;;
26163;SDS011;13914;48.178;11.716;2023-02-28T01:01:57;7.50;;;2.67;;
26163;SDS011;13914;48.178;11.716;2023-02-28T01:04:23;7.22;;;2.92;;
26163;SDS011;13914;48.178;11.716;2023-02-28T01:06:49;8.45;;;3.70;;
26163;SDS011;13914;48.178;11.716;2023-02-28T01:09:15;6.50;;;2.90;;
26163;SDS011;13914;48.178;11.716;2023-02-28T01:11:43;6.68;;;3.17;;
26163;SDS011;13914;48.178;11.716;2023-02-28T01:14:13;7.15;;;3.17;;
26163;SDS011;13914;48.178;11.716;2023-02-28T01:16:41;7.63;;;2.97;;
26163;SDS011;13914;48.178;11.716;2023-02-28T01:19:07;7.18;;;2.88;;
26163;SDS011;13914;48.178;11.716;2023-02-28T01:21:33;7.07;;;3.28;;
26163;SDS011;13914;48.178;11.716;2023-02-28T01:24:01;5.07;;;2.42;;
26163;SDS011;13914;48.178;11.716;2023-02-28T01:26:28;7.80;;;3.40;;
26163;SDS011;13914;48.178;11.716;2023-02-28T01:28:55;5.70;;;3.15;;
26163;SDS011;13914;48.178;11.716;2023-02-28T01:31:21;5.63;;;2.58;;
26163;SDS011;13914;48.178;11.716;2023-02-28T01:33:48;9.05;;;3.42;;
26163;SDS011;13914;48.178;11.716;2023-02-28T01:36:15;6.75;;;3.00;;
26163;SDS011;13914;48.178;11.716;2023-02-28T01:38:44;5.72;;;2.72;;
26163;SDS011;13914;48.178;11.716;2023-02-28T01:41:18;7.90;;;3.13;;
26163;SDS011;13914;48.178;11.716;2023-02-28T01:46:21;5.93;;;2.53;;
26163;SDS011;13914;48.178;11.716;2023-02-28T01:48:50;7.13;;;2.58;;
26163;SDS011;13914;48.178;11.716;2023-02-28T01:51:23;8.82;;;3.28;;
26163;SDS011;13914;48.178;11.716;2023-02-28T01:53:57;7.18;;;2.65;;
26163;SDS011;13914;48.178;11.716;2023-02-28T01:56:29;7.47;;;2.88;;
26163;SDS011;13914;48.178;11.716;2023-02-28T01:58:58;12.23;;;3.15;;
26163;SDS011;13914;48.178;11.716;2023-02-28T02:01:25;8.85;;;3.17;;
26163;SDS011;13914;48.178;11.716;2023-02-28T02:03:53;7.45;;;2.67;;
26163;SDS011;13914;48.178;11.716;2023-02-28T02:06:22;5.88;;;3.08;;
26163;SDS011;13914;48.178;11.716;2023-02-28T02:08:53;8.65;;;3.15;;
26163;SDS011;13914;48.178;11.716;2023-02-28T02:11:20;6.93;;;2.78;;
26163;SDS011;13914;48.178;11.716;2023-02-28T02:17:09;5.70;;;2.88;;
26163;SDS011;13914;48.178;11.716;2023-02-28T02:25:47;6.47;;;3.47;;
26163;SDS011;13914;48.178;11.716;2023-02-28T02:34:48;4.45;;;2.50;;
26163;SDS011;13914;48.178;11.716;2023-02-28T02:38:07;5.05;;;2.95;;
26163;SDS011;13914;48.178;11.716;2023-02-28T02:40:38;4.72;;;2.45;;
26163;SDS011;13914;48.178;11.716;2023-02-28T02:43:22;8.18;;;2.20;;
26163;SDS011;13914;48.178;11.716;2023-02-28T02:46:07;4.95;;;2.85;;
26163;SDS011;13914;48.178;11.716;2023-02-28T02:48:54;7.35;;;2.95;;
26163;SDS011;13914;48.178;11.716;2023-02-28T02:51:24;7.45;;;3.22;;
26163;SDS011;13914;48.178;11.716;2023-02-28T02:53:57;4.75;;;2.58;;
26163;SDS011;13914;48.178;11.716;2023-02-28T02:56:31;4.97;;;2.92;;
26163;SDS011;13914;48.178;11.716;2023-02-28T02:59:03;6.22;;;3.38;;
26163;SDS011;13914;48.178;11.716;2023-02-28T03:01:32;5.65;;;3.00;;
26163;SDS011;13914;48.178;11.716;2023-02-28T03:04:11;6.85;;;3.35;;
26163;SDS011;13914;48.178;11.716;2023-02-28T03:06:43;8.30;;;3.65;;
26163;SDS011;13914;48.178;11.716;2023-02-28T03:09:09;8.23;;;2.97;;
26163;SDS011;13914;48.178;11.716;2023-02-28T03:11:36;6.22;;;3.28;;
26163;SDS011;13914;48.178;11.716;2023-02-28T03:26:18;8.38;;;3.70;;
26163;SDS011;13914;48.178;11.716;2023-02-28T03:32:10;5.95;;;3.45;;
26163;SDS011;13914;48.178;11.716;2023-02-28T03:35:21;8.68;;;4.45;;
26163;SDS011;13914;48.178;11.716;2023-02-28T03:40:30;6.95;;;3.55;;
26163;SDS011;13914;48.178;11.716;2023-02-28T03:42:59;8.43;;;3.75;;
26163;SDS011;13914;48.178;11.716;2023-02-28T03:45:37;7.97;;;4.72;;
26163;SDS011;13914;48.178;11.716;2023-02-28T03:48:13;10.05;;;3.50;;
26163;SDS011;13914;48.178;11.716;2023-02-28T03:50:58;10.88;;;4.97;;
26163;SDS011;13914;48.178;11.716;2023-02-28T03:53:29;8.40;;;4.28;;
26163;SDS011;13914;48.178;11.716;2023-02-28T03:58:39;8.20;;;4.03;;
26163;SDS011;13914;48.178;11.716;2023-02-28T04:01:18;9.57;;;4.30;;
26163;SDS011;13914;48.178;11.716;2023-02-28T04:03:53;8.50;;;3.60;;
26163;SDS011;13914;48.178;11.716;2023-02-28T04:06:22;9.55;;;4.00;;
26163;SDS011;13914;48.178;11.716;2023-02-28T04:08:52;11.93;;;6.07;;
26163;SDS011;13914;48.178;11.716;2023-02-28T04:11:23;9.55;;;5.10;;
26163;SDS011;13914;48.178;11.716;2023-02-28T04:14:02;9.90;;;4.00;;
26163;SDS011;13914;48.178;11.716;2023-02-28T04:16:30;10.93;;;4.65;;
26163;SDS011;13914;48.178;11.716;2023-02-28T04:19:01;12.65;;;5.50;;
26163;SDS011;13914;48.178;11.716;2023-02-28T04:24:05;10.13;;;5.50;;
26163;SDS011;13914;48.178;11.716;2023-02-28T04:26:35;10.05;;;5.13;;
26163;SDS011;13914;48.178;11.716;2023-02-28T04:29:03;11.77;;;5.82;;
26163;SDS011;13914;48.178;11.716;2023-02-28T04:31:31;7.25;;;3.28;;
26163;SDS011;13914;48.178;11.716;2023-02-28T04:33:57;10.57;;;5.55;;
26163;SDS011;13914;48.178;11.716;2023-02-28T04:36:23;8.65;;;4.40;;
26163;SDS011;13914;48.178;11.716;2023-02-28T04:38:49;9.57;;;4.60;;
26163;SDS011;13914;48.178;11.716;2023-02-28T04:41:16;16.13;;;6.43;;
26163;SDS011;13914;48.178;11.716;2023-02-28T04:48:40;10.73;;;5.35;;
26163;SDS011;13914;48.178;11.716;2023-02-28T04:51:11;11.75;;;5.32;;
26163;SDS011;13914;48.178;11.716;2023-02-28T04:53:39;13.95;;;6.97;;
26163;SDS011;13914;48.178;11.716;2023-02-28T04:56:08;16.20;;;7.07;;
26163;SDS011;13914;48.178;11.716;2023-02-28T04:58:38;12.07;;;5.82;;
26163;SDS011;13914;48.178;11.716;2023-02-28T05:01:06;4.20;;;1.30;;
26163;SDS011;13914;48.178;11.716;2023-02-28T05:03:46;11.57;;;6.25;;
26163;SDS011;13914;48.178;11.716;2023-02-28T05:06:16;11.73;;;5.18;;
26163;SDS011;13914;48.178;11.716;2023-02-28T05:08:43;12.18;;;6.88;;
26163;SDS011;13914;48.178;11.716;2023-02-28T05:13:48;15.15;;;7.85;;
26163;SDS011;13914;48.178;11.716;2023-02-28T05:18:41;15.40;;;7.05;;
26163;SDS011;13914;48.178;11.716;2023-02-28T05:23:50;10.43;;;5.13;;
26163;SDS011;13914;48.178;11.716;2023-02-28T05:26:18;16.33;;;7.88;;
26163;SDS011;13914;48.178;11.716;2023-02-28T05:28:45;16.67;;;7.15;;
26163;SDS011;13914;48.178;11.716;2023-02-28T05:31:11;16.98;;;8.10;;
26163;SDS011;13914;48.178;11.716;2023-02-28T05:33:37;16.83;;;7.95;;
26163;SDS011;13914;48.178;11.716;2023-02-28T05:36:03;16.83;;;9.20;;
26163;SDS011;13914;48.178;11.716;2023-02-28T05:38:29;18.73;;;8.35;;
26163;SDS011;13914;48.178;11.716;2023-02-28T05:40:55;19.33;;;9.38;;
26163;SDS011;13914;48.178;11.716;2023-02-28T05:43:21;22.45;;;9.95;;
26163;SDS011;13914;48.178;11.716;2023-02-28T05:50:39;15.63;;;7.90;;
26163;SDS011;13914;48.178;11.716;2023-02-28T05:53:05;18.23;;;8.60;;
26163;SDS011;13914;48.178;11.716;2023-02-28T05:55:30;12.52;;;6.45;;
26163;SDS011;13914;48.178;11.716;2023-02-28T05:57:56;13.45;;;6.72;;
26163;SDS011;13914;48.178;11.716;2023-02-28T06:00:22;18.90;;;8.85;;
26163;SDS011;13914;48.178;11.716;2023-02-28T06:05:16;7.68;;;3.40;;
26163;SDS011;13914;48.178;11.716;2023-02-28T06:07:43;16.02;;;7.88;;
26163;SDS011;13914;48.178;11.716;2023-02-28T06:10:10;18.92;;;8.70;;
26163;SDS011;13914;48.178;11.716;2023-02-28T06:12:37;18.75;;;9.68;;
26163;SDS011;13914;48.178;11.716;2023-02-28T06:15:03;16.85;;;7.35;;
26163;SDS011;13914;48.178;11.716;2023-02-28T06:17:30;16.73;;;8.30;;
26163;SDS011;13914;48.178;11.716;2023-02-28T06:19:56;21.95;;;9.40;;
26163;SDS011;13914;48.178;11.716;2023-02-28T06:22:21;10.65;;;6.15;;
26163;SDS011;13914;48.178;11.716;2023-02-28T06:24:47;15.57;;;8.48;;
26163;SDS011;13914;48.178;11.716;2023-02-28T06:27:13;17.58;;;8.23;;
26163;SDS011;13914;48.178;11.716;2023-02-28T06:29:39;14.95;;;7.95;;
26163;SDS011;13914;48.178;11.716;2023-02-28T06:32:05;15.98;;;7.70;;
26163;SDS011;13914;48.178;11.716;2023-02-28T06:34:31;15.38;;;8.13;;
26163;SDS011;13914;48.178;11.716;2023-02-28T06:36:59;18.70;;;8.98;;
26163;SDS011;13914;48.178;11.716;2023-02-28T06:39:27;11.40;;;6.05;;
26163;SDS011;13914;48.178;11.716;2023-02-28T06:41:55;12.65;;;6.65;;
26163;SDS011;13914;48.178;11.716;2023-02-28T06:44:21;14.45;;;7.05;;
26163;SDS011;13914;48.178;11.716;2023-02-28T06:46:48;18.55;;;8.50;;
26163;SDS011;13914;48.178;11.716;2023-02-28T06:51:41;16.15;;;7.78;;
26163;SDS011;13914;48.178;11.716;2023-02-28T06:54:12;21.60;;;8.63;;
26163;SDS011;13914;48.178;11.716;2023-02-28T06:56:38;23.30;;;9.18;;
26163;SDS011;13914;48.178;11.716;2023-02-28T06:59:04;19.30;;;9.88;;
26163;SDS011;13914;48.178;11.716;2023-02-28T07:01:30;22.88;;;9.60;;
26163;SDS011;13914;48.178;11.716;2023-02-28T07:03:59;20.17;;;6.20;;
26163;SDS011;13914;48.178;11.716;2023-02-28T07:06:26;22.80;;;9.40;;
26163;SDS011;13914;48.178;11.716;2023-02-28T07:08:55;19.02;;;8.35;;
26163;SDS011;13914;48.178;11.716;2023-02-28T07:11:22;18.63;;;9.52;;
26163;SDS011;13914;48.178;11.716;2023-02-28T07:13:51;18.92;;;9.38;;
26163;SDS011;13914;48.178;11.716;2023-02-28T07:16:18;17.13;;;9.90;;
26163;SDS011;13914;48.178;11.716;2023-02-28T07:18:44;18.55;;;9.18;;
26163;SDS011;13914;48.178;11.716;2023-02-28T07:21:10;18.23;;;7.68;;
26163;SDS011;13914;48.178;11.716;2023-02-28T07:23:37;18.85;;;8.93;;
26163;SDS011;13914;48.178;11.716;2023-02-28T07:26:04;19.95;;;9.57;;
26163;SDS011;13914;48.178;11.716;2023-02-28T07:28:31;20.05;;;9.88;;
26163;SDS011;13914;48.178;11.716;2023-02-28T07:31:02;8.70;;;4.53;;
26163;SDS011;13914;48.178;11.716;2023-02-28T07:33:32;15.70;;;8.73;;
26163;SDS011;13914;48.178;11.716;2023-02-28T07:36:03;21.52;;;10.10;;
26163;SDS011;13914;48.178;11.716;2023-02-28T07:38:35;16.55;;;8.43;;
26163;SDS011;13914;48.178;11.716;2023-02-28T07:41:02;22.42;;;11.50;;
26163;SDS011;13914;48.178;11.716;2023-02-28T07:43:33;21.73;;;9.30;;
26163;SDS011;13914;48.178;11.716;2023-02-28T07:46:04;25.30;;;11.35;;
26163;SDS011;13914;48.178;11.716;2023-02-28T07:48:32;20.83;;;9.30;;
26163;SDS011;13914;48.178;11.716;2023-02-28T07:50:58;22.60;;;10.85;;
26163;SDS011;13914;48.178;11.716;2023-02-28T07:55:55;17.17;;;9.48;;
26163;SDS011;13914;48.178;11.716;2023-02-28T07:58:23;25.90;;;10.30;;
26163;SDS011;13914;48.178;11.716;2023-02-28T08:00:50;16.88;;;9.57;;
26163;SDS011;13914;48.178;11.716;2023-02-28T08:03:17;25.10;;;10.95;;
26163;SDS011;13914;48.178;11.716;2023-02-28T08:05:44;19.38;;;9.63;;
26163;SDS011;13914;48.178;11.716;2023-02-28T08:08:10;22.05;;;11.32;;
26163;SDS011;13914;48.178;11.716;2023-02-28T08:10:36;19.40;;;9.65;;
26163;SDS011;13914;48.178;11.716;2023-02-28T08:13:03;26.38;;;11.38;;
26163;SDS011;13914;48.178;11.716;2023-02-28T08:15:29;25.08;;;12.00;;
26163;SDS011;13914;48.178;11.716;2023-02-28T08:17:55;27.88;;;10.65;;
26163;SDS011;13914;48.178;11.716;2023-02-28T08:20:24;22.70;;;9.98;;
26163;SDS011;13914;48.178;11.716;2023-02-28T08:22:50;19.02;;;10.70;;
26163;SDS011;13914;48.178;11.716;2023-02-28T08:25:16;23.55;;;11.93;;
26163;SDS011;13914;48.178;11.716;2023-02-28T08:30:12;20.45;;;10.48;;
26163;SDS011;13914;48.178;11.716;2023-02-28T08:32:39;21.48;;;11.05;;
26163;SDS011;13914;48.178;11.716;2023-02-28T08:35:08;23.83;;;10.88;;
26163;SDS011;13914;48.178;11.716;2023-02-28T08:37:34;20.85;;;11.13;;
26163;SDS011;13914;48.178;11.716;2023-02-28T08:40:00;25.95;;;11.27;;
26163;SDS011;13914;48.178;11.716;2023-02-28T08:42:26;21.77;;;10.63;;
26163;SDS011;13914;48.178;11.716;2023-02-28T08:44:52;23.77;;;12.27;;
26163;SDS011;13914;48.178;11.716;2023-02-28T08:47:18;20.70;;;10.55;;
26163;SDS011;13914;48.178;11.716;2023-02-28T08:49:44;23.50;;;10.63;;
26163;SDS011;13914;48.178;11.716;2023-02-28T08:57:03;24.70;;;10.43;;
26163;SDS011;13914;48.178;11.716;2023-02-28T08:59:29;25.23;;;12.15;;
26163;SDS011;13914;48.178;11.716;2023-02-28T09:01:55;27.45;;;11.02;;
26163;SDS011;13914;48.178;11.716;2023-02-28T09:04:21;23.33;;;10.45;;
26163;SDS011;13914;48.178;11.716;2023-02-28T09:06:47;25.90;;;11.77;;
26163;SDS011;13914;48.178;11.716;2023-02-28T09:09:14;27.95;;;12.90;;
26163;SDS011;13914;48.178;11.716;2023-02-28T09:11:41;20.48;;;10.23;;
26163;SDS011;13914;48.178;11.716;2023-02-28T09:14:07;24.33;;;12.32;;
26163;SDS011;13914;48.178;11.716;2023-02-28T09:16:33;24.85;;;13.68;;
26163;SDS011;13914;48.178;11.716;2023-02-28T09:19:00;18.45;;;9.23;;
26163;SDS011;13914;48.178;11.716;2023-02-28T09:21:26;22.42;;;10.82;;
26163;SDS011;13914;48.178;11.716;2023-02-28T09:23:53;23.17;;;7.40;;
26163;SDS011;13914;48.178;11.716;2023-02-28T09:26:21;21.77;;;11.55;;
26163;SDS011;13914;48.178;11.716;2023-02-28T09:28:52;22.08;;;11.68;;
26163;SDS011;13914;48.178;11.716;2023-02-28T09:31:23;25.80;;;12.63;;
26163;SDS011;13914;48.178;11.716;2023-02-28T09:33:54;26.70;;;12.70;;
26163;SDS011;13914;48.178;11.716;2023-02-28T09:36:22;23.35;;;10.52;;
26163;SDS011;13914;48.178;11.716;2023-02-28T09:38:49;27.63;;;11.77;;
26163;SDS011;13914;48.178;11.716;2023-02-28T09:41:24;21.77;;;12.07;;
26163;SDS011;13914;48.178;11.716;2023-02-28T09:43:57;25.35;;;11.38;;
26163;SDS011;13914;48.178;11.716;2023-02-28T09:46:37;22.88;;;12.10;;
26163;SDS011;13914;48.178;11.716;2023-02-28T09:49:11;22.88;;;11.82;;
26163;SDS011;13914;48.178;11.716;2023-02-28T09:54:36;20.00;;;10.65;;
26163;SDS011;13914;48.178;11.716;2023-02-28T09:57:19;19.67;;;11.23;;
26163;SDS011;13914;48.178;11.716;2023-02-28T10:00:15;22.77;;;12.13;;
26163;SDS011;13914;48.178;11.716;2023-02-28T10:05:19;20.60;;;12.52;;
26163;SDS011;13914;48.178;11.716;2023-02-28T10:08:16;18.80;;;11.07;;
26163;SDS011;13914;48.178;11.716;2023-02-28T10:10:51;24.00;;;12.23;;
26163;SDS011;13914;48.178;11.716;2023-02-28T10:16:13;20.23;;;11.50;;
26163;SDS011;13914;48.178;11.716;2023-02-28T10:18:47;20.48;;;11.45;;
26163;SDS011;13914;48.178;11.716;2023-02-28T10:21:31;22.05;;;11.27;;
26163;SDS011;13914;48.178;11.716;2023-02-28T10:24:13;22.13;;;12.05;;
26163;SDS011;13914;48.178;11.716;2023-02-28T10:26:47;23.67;;;12.00;;
26163;SDS011;13914;48.178;11.716;2023-02-28T10:29:14;22.75;;;12.90;;
26163;SDS011;13914;48.178;11.716;2023-02-28T10:34:07;28.42;;;11.80;;
26163;SDS011;13914;48.178;11.716;2023-02-28T10:36:37;24.52;;;12.43;;
26163;SDS011;13914;48.178;11.716;2023-02-28T10:39:21;21.33;;;12.10;;
26163;SDS011;13914;48.178;11.716;2023-02-28T10:42:04;23.27;;;12.57;;
26163;SDS011;13914;48.178;11.716;2023-02-28T10:44:31;22.08;;;12.32;;
26163;SDS011;13914;48.178;11.716;2023-02-28T10:46:57;21.85;;;11.90;;
26163;SDS011;13914;48.178;11.716;2023-02-28T10:49:24;21.70;;;12.27;;
26163;SDS011;13914;48.178;11.716;2023-02-28T10:51:53;25.33;;;12.73;;
26163;SDS011;13914;48.178;11.716;2023-02-28T10:54:32;20.73;;;11.93;;
26163;SDS011;13914;48.178;11.716;2023-02-28T10:59:32;24.58;;;11.68;;
26163;SDS011;13914;48.178;11.716;2023-02-28T11:01:58;23.23;;;12.80;;
26163;SDS011;13914;48.178;11.716;2023-02-28T11:06:57;20.42;;;11.27;;
26163;SDS011;13914;48.178;11.716;2023-02-28T11:09:27;22.15;;;11.73;;
26163;SDS011;13914;48.178;11.716;2023-02-28T11:12:01;19.02;;;8.52;;
26163;SDS011;13914;48.178;11.716;2023-02-28T11:14:31;18.55;;;10.88;;
26163;SDS011;13914;48.178;11.716;2023-02-28T11:17:14;24.25;;;11.93;;
26163;SDS011;13914;48.178;11.716;2023-02-28T11:19:48;20.35;;;11.27;;
26163;SDS011;13914;48.178;11.716;2023-02-28T11:22:18;23.98;;;12.57;;
26163;SDS011;13914;48.178;11.716;2023-02-28T11:24:50;22.73;;;11.95;;
26163;SDS011;13914;48.178;11.716;2023-02-28T11:27:25;18.15;;;10.25;;
26163;SDS011;13914;48.178;11.716;2023-02-28T11:29:51;19.20;;;11.32;;
26163;SDS011;13914;48.178;11.716;2023-02-28T11:32:21;22.05;;;12.15;;
26163;SDS011;13914;48.178;11.716;2023-02-28T11:35:03;21.23;;;11.80;;
26163;SDS011;13914;48.178;11.716;2023-02-28T11:37:42;21.65;;;11.40;;
26163;SDS011;13914;48.178;11.716;2023-02-28T11:40:18;21.58;;;10.98;;
26163;SDS011;13914;48.178;11.716;2023-02-28T11:48:46;20.98;;;11.05;;
26163;SDS011;13914;48.178;11.716;2023-02-28T11:55:04;17.05;;;9.85;;
26163;SDS011;13914;48.178;11.716;2023-02-28T12:09:53;21.15;;;11.85;;
26163;SDS011;13914;48.178;11.716;2023-02-28T12:18:17;21.55;;;11.55;;
26163;SDS011;13914;48.178;11.716;2023-02-28T12:24:36;20.48;;;11.15;;
26163;SDS011;13914;48.178;11.716;2023-02-28T12:27:24;19.38;;;10.90;;
26163;SDS011;13914;48.178;11.716;2023-02-28T12:29:57;21.00;;;10.23;;
26163;SDS011;13914;48.178;11.716;2023-02-28T12:32:39;17.10;;;10.30;;
26163;SDS011;13914;48.178;11.716;2023-02-28T12:37:49;17.70;;;10.57;;
26163;SDS011;13914;48.178;11.716;2023-02-28T12:40:50;20.50;;;11.40;;
26163;SDS011;13914;48.178;11.716;2023-02-28T12:43:20;17.48;;;10.73;;
26163;SDS011;13914;48.178;11.716;2023-02-28T12:45:56;20.50;;;10.98;;
26163;SDS011;13914;48.178;11.716;2023-02-28T12:48:31;18.75;;;8.73;;
26163;SDS011;13914;48.178;11.716;2023-02-28T12:53:35;7.47;;;3.60;;
26163;SDS011;13914;48.178;11.716;2023-02-28T12:59:14;17.83;;;8.57;;
26163;SDS011;13914;48.178;11.716;2023-02-28T13:10:43;24.20;;;10.05;;
26163;SDS011;13914;48.178;11.716;2023-02-28T13:13:15;18.70;;;10.45;;
26163;SDS011;13914;48.178;11.716;2023-02-28T13:18:43;16.40;;;9.77;;
26163;SDS011;13914;48.178;11.716;2023-02-28T13:21:27;15.27;;;9.63;;
26163;SDS011;13914;48.178;11.716;2023-02-28T13:26:22;16.25;;;9.63;;
26163;SDS011;13914;48.178;11.716;2023-02-28T13:32:18;19.95;;;9.65;;
26163;SDS011;13914;48.178;11.716;2023-02-28T13:34:42;18.23;;;10.73;;
26163;SDS011;13914;48.178;11.716;2023-02-28T13:37:32;18.13;;;9.55;;
26163;SDS011;13914;48.178;11.716;2023-02-28T13:42:46;16.73;;;9.57;;
26163;SDS011;13914;48.178;11.716;2023-02-28T13:45:27;15.82;;;10.05;;
26163;SDS011;13914;48.178;11.716;2023-02-28T13:48:05;17.58;;;9.40;;
26163;SDS011;13914;48.178;11.716;2023-02-28T13:50:43;17.73;;;10.00;;
26163;SDS011;13914;48.178;11.716;2023-02-28T13:55:46;17.92;;;9.70;;
26163;SDS011;13914;48.178;11.716;2023-02-28T14:07:00;16.75;;;9.40;;
26163;SDS011;13914;48.178;11.716;2023-02-28T14:09:29;20.10;;;9.60;;
26163;SDS011;13914;48.178;11.716;2023-02-28T14:18:23;17.75;;;8.73;;
26163;SDS011;13914;48.178;11.716;2023-02-28T14:24:10;17.70;;;9.23;;
26163;SDS011;13914;48.178;11.716;2023-02-28T14:33:08;16.80;;;10.35;;
26163;SDS011;13914;48.178;11.716;2023-02-28T14:36:05;15.98;;;8.77;;
26163;SDS011;13914;48.178;11.716;2023-02-28T14:38:44;16.95;;;9.35;;
26163;SDS011;13914;48.178;11.716;2023-02-28T14:41:32;18.63;;;9.15;;
26163;SDS011;13914;48.178;11.716;2023-02-28T14:44:02;14.80;;;8.88;;
26163;SDS011;13914;48.178;11.716;2023-02-28T14:46:40;17.10;;;9.65;;
26163;SDS011;13914;48.178;11.716;2023-02-28T14:49:27;10.95;;;6.13;;
26163;SDS011;13914;48.178;11.716;2023-02-28T14:54:41;14.80;;;9.07;;
26163;SDS011;13914;48.178;11.716;2023-02-28T14:57:21;14.23;;;8.20;;
26163;SDS011;13914;48.178;11.716;2023-02-28T14:59:56;18.23;;;9.77;;
26163;SDS011;13914;48.178;11.716;2023-02-28T15:02:30;16.67;;;9.00;;
26163;SDS011;13914;48.178;11.716;2023-02-28T15:07:35;17.00;;;8.63;;
26163;SDS011;13914;48.178;11.716;2023-02-28T15:12:53;18.45;;;9.43;;
26163;SDS011;13914;48.178;11.716;2023-02-28T15:21:21;16.83;;;9.25;;
26163;SDS011;13914;48.178;11.716;2023-02-28T15:24:02;17.60;;;9.40;;
26163;SDS011;13914;48.178;11.716;2023-02-28T15:26:37;19.42;;;10.18;;
26163;SDS011;13914;48.178;11.716;2023-02-28T15:29:12;12.18;;;7.47;;
26163;SDS011;13914;48.178;11.716;2023-02-28T15:32:05;17.77;;;9.48;;
26163;SDS011;13914;48.178;11.716;2023-02-28T15:39:54;10.38;;;4.97;;
26163;SDS011;13914;48.178;11.716;2023-02-28T15:42:23;9.63;;;6.07;;
26163;SDS011;13914;48.178;11.716;2023-02-28T15:44:54;18.50;;;10.88;;
26163;SDS011;13914;48.178;11.716;2023-02-28T15:47:21;23.30;;;8.32;;
26163;SDS011;13914;48.178;11.716;2023-02-28T15:49:58;17.10;;;10.70;;
26163;SDS011;13914;48.178;11.716;2023-02-28T15:57:43;14.85;;;9.00;;
26163;SDS011;13914;48.178;11.716;2023-02-28T16:00:11;18.15;;;9.93;;
26163;SDS011;13914;48.178;11.716;2023-02-28T16:02:40;19.73;;;10.10;;
26163;SDS011;13914;48.178;11.716;2023-02-28T16:07:39;17.67;;;8.98;;
26163;SDS011;13914;48.178;11.716;2023-02-28T16:10:09;16.63;;;9.68;;
26163;SDS011;13914;48.178;11.716;2023-02-28T16:12:37;18.85;;;9.63;;
26163;SDS011;13914;48.178;11.716;2023-02-28T16:15:14;18.63;;;9.43;;
26163;SDS011;13914;48.178;11.716;2023-02-28T16:17:48;21.58;;;9.82;;
26163;SDS011;13914;48.178;11.716;2023-02-28T16:22:43;17.30;;;8.65;;
26163;SDS011;13914;48.178;11.716;2023-02-28T16:25:14;21.58;;;10.52;;
26163;SDS011;13914;48.178;11.716;2023-02-28T16:27:43;14.70;;;9.40;;
26163;SDS011;13914;48.178;11.716;2023-02-28T16:30:21;17.33;;;8.90;;
26163;SDS011;13914;48.178;11.716;2023-02-28T16:32:50;17.95;;;9.48;;
26163;SDS011;13914;48.178;11.716;2023-02-28T16:35:17;19.10;;;10.90;;
26163;SDS011;13914;48.178;11.716;2023-02-28T16:37:44;25.42;;;10.27;;
26163;SDS011;13914;48.178;11.716;2023-02-28T16:40:17;19.23;;;10.65;;
26163;SDS011;13914;48.178;11.716;2023-02-28T16:42:47;20.27;;;9.75;;
26163;SDS011;13914;48.178;11.716;2023-02-28T16:45:17;19.50;;;10.00;;
26163;SDS011;13914;48.178;11.716;2023-02-28T16:47:46;19.45;;;9.48;;
26163;SDS011;13914;48.178;11.716;2023-02-28T16:50:14;17.73;;;10.63;;
26163;SDS011;13914;48.178;11.716;2023-02-28T16:52:45;15.63;;;9.68;;
26163;SDS011;13914;48.178;11.716;2023-02-28T16:55:12;15.63;;;9.68;;
26163;SDS011;13914;48.178;11.716;2023-02-28T16:57:38;20.63;;;10.40;;
26163;SDS011;13914;48.178;11.716;2023-02-28T17:00:05;18.00;;;10.15;;
26163;SDS011;13914;48.178;11.716;2023-02-28T17:02:33;18.38;;;9.70;;
26163;SDS011;13914;48.178;11.716;2023-02-28T17:04:59;13.68;;;7.75;;
26163;SDS011;13914;48.178;11.716;2023-02-28T17:07:25;16.45;;;9.60;;
26163;SDS011;13914;48.178;11.716;2023-02-28T17:09:51;17.53;;;9.17;;
26163;SDS011;13914;48.178;11.716;2023-02-28T17:12:17;14.80;;;8.68;;
26163;SDS011;13914;48.178;11.716;2023-02-28T17:14:42;18.65;;;9.93;;
26163;SDS011;13914;48.178;11.716;2023-02-28T17:17:10;18.60;;;9.95;;
26163;SDS011;13914;48.178;11.716;2023-02-28T17:19:43;17.05;;;9.65;;
26163;SDS011;13914;48.178;11.716;2023-02-28T17:22:09;17.02;;;9.93;;
26163;SDS011;13914;48.178;11.716;2023-02-28T17:24:35;21.92;;;10.73;;
26163;SDS011;13914;48.178;11.716;2023-02-28T17:27:01;16.85;;;10.45;;
26163;SDS011;13914;48.178;11.716;2023-02-28T17:29:28;15.73;;;9.93;;
26163;SDS011;13914;48.178;11.716;2023-02-28T17:31:54;16.38;;;9.77;;
26163;SDS011;13914;48.178;11.716;2023-02-28T17:34:20;17.45;;;10.50;;
26163;SDS011;13914;48.178;11.716;2023-02-28T17:36:47;19.85;;;10.73;;
26163;SDS011;13914;48.178;11.716;2023-02-28T17:39:15;20.20;;;10.80;;
26163;SDS011;13914;48.178;11.716;2023-02-28T17:41:49;18.58;;;10.38;;
26163;SDS011;13914;48.178;11.716;2023-02-28T17:44:23;20.83;;;10.38;;
26163;SDS011;13914;48.178;11.716;2023-02-28T17:46:50;17.60;;;10.35;;
26163;SDS011;13914;48.178;11.716;2023-02-28T17:49:17;18.98;;;10.23;;
26163;SDS011;13914;48.178;11.716;2023-02-28T17:54:09;18.92;;;9.18;;
26163;SDS011;13914;48.178;11.716;2023-02-28T17:56:35;20.70;;;10.23;;
26163;SDS011;13914;48.178;11.716;2023-02-28T17:59:01;25.25;;;11.75;;
26163;SDS011;13914;48.178;11.716;2023-02-28T18:01:27;16.65;;;9.77;;
26163;SDS011;13914;48.178;11.716;2023-02-28T18:03:53;18.88;;;10.40;;
26163;SDS011;13914;48.178;11.716;2023-02-28T18:06:31;24.75;;;10.55;;
26163;SDS011;13914;48.178;11.716;2023-02-28T18:09:19;18.00;;;9.33;;